Time;durP1;ratioP1;P1;durP2;ratioP2;P2;SDS_P1;SDS_P2;PMS_P1;PMS_P2;Temp;Humidity;BMP_temperature;BMP_pressure;BME280_temperature;BME280_humidity;BME280_pressure;Samples;Min_cycle;Max_cycle;Signal;HPM_P1;HPM_P2
2022/05/19 00:00:15;;;;;;;8.33;5.07;;;22.20;99.90;;;;;;5095477;28;20262;-83
2022/05/19 00:02:42;;;;;;;6.07;4.50;;;22.30;99.90;;;;;;5095551;28;20219;-83
2022/05/19 00:05:10;;;;;;;7.43;4.93;;;22.30;99.90;;;;;;5095240;28;20548;-83
2022/05/19 00:07:37;;;;;;;6.65;4.90;;;22.30;99.90;;;;;;5094681;28;20426;-83
2022/05/19 00:10:06;;;;;;;7.63;4.67;;;22.30;99.90;;;;;;5094698;28;20249;-84
2022/05/19 00:12:33;;;;;;;6.70;4.50;;;22.20;99.90;;;;;;5095061;28;20192;-84
2022/05/19 00:15:00;;;;;;;7.87;4.40;;;22.30;99.90;;;;;;5095025;28;20280;-83
2022/05/19 00:17:27;;;;;;;4.90;4.43;;;22.20;99.90;;;;;;5095022;28;20663;-83
2022/05/19 00:19:55;;;;;;;6.67;4.60;;;22.10;99.90;;;;;;5094670;28;20236;-84
2022/05/19 00:22:21;;;;;;;5.30;4.10;;;22.10;99.90;;;;;;5095056;28;20202;-83
2022/05/19 00:24:48;;;;;;;8.00;4.27;;;22.20;99.90;;;;;;5094449;28;20209;-83
2022/05/19 00:27:16;;;;;;;6.33;3.90;;;22.20;99.90;;;;;;5095070;28;20202;-83
2022/05/19 00:29:43;;;;;;;7.27;4.10;;;22.20;99.90;;;;;;5094605;28;20670;-84
2022/05/19 00:32:10;;;;;;;6.73;4.00;;;22.20;99.90;;;;;;5094963;28;20227;-83
2022/05/19 00:34:36;;;;;;;9.63;4.13;;;22.30;99.90;;;;;;5094708;28;20206;-83
2022/05/19 00:37:04;;;;;;;8.77;4.43;;;22.30;99.90;;;;;;5094741;28;20203;-84
2022/05/19 00:39:34;;;;;;;7.60;4.20;;;22.30;99.90;;;;;;5094114;28;20227;-83
2022/05/19 00:44:47;;;;;;;6.43;4.53;;;22.40;99.90;;;;;;5094274;28;20551;-83
2022/05/19 00:47:20;;;;;;;4.33;3.93;;;22.40;99.90;;;;;;5094697;28;20207;-83
2022/05/19 00:49:47;;;;;;;5.73;4.07;;;22.50;99.90;;;;;;5094227;28;20682;-84
2022/05/19 00:52:21;;;;;;;5.80;3.67;;;22.40;99.90;;;;;;5094313;28;20188;-84
2022/05/19 00:54:51;;;;;;;6.40;3.63;;;22.40;99.90;;;;;;5093880;28;20206;-84
2022/05/19 00:57:21;;;;;;;7.70;4.20;;;22.40;99.90;;;;;;5094514;28;20188;-83
2022/05/19 00:59:54;;;;;;;6.23;4.13;;;22.50;99.90;;;;;;5093932;28;20239;-83
2022/05/19 01:02:26;;;;;;;6.97;3.83;;;22.50;99.90;;;;;;5093055;28;20252;-84
2022/05/19 01:04:57;;;;;;;7.77;4.00;;;22.50;99.90;;;;;;5094053;28;20187;-83
2022/05/19 01:07:31;;;;;;;7.27;3.63;;;22.30;99.90;;;;;;5094223;28;20218;-83
2022/05/19 01:09:59;;;;;;;7.23;4.07;;;22.20;99.90;;;;;;5092938;28;20767;-83
2022/05/19 01:12:28;;;;;;;6.20;3.57;;;22.30;99.90;;;;;;5094385;28;20195;-83
2022/05/19 01:14:56;;;;;;;6.27;4.03;;;22.30;99.90;;;;;;5093891;28;20325;-84
2022/05/19 01:17:24;;;;;;;4.40;4.00;;;22.00;99.90;;;;;;5093870;28;20226;-83
2022/05/19 01:19:58;;;;;;;5.80;3.67;;;21.90;99.90;;;;;;5094088;28;20673;-83
2022/05/19 01:22:32;;;;;;;5.97;3.97;;;21.80;99.90;;;;;;5094078;28;20242;-83
2022/05/19 01:25:05;;;;;;;4.33;3.63;;;21.80;99.90;;;;;;5093927;28;20216;-83
2022/05/19 01:27:34;;;;;;;7.53;4.60;;;21.80;99.90;;;;;;5094369;28;20193;-84
2022/05/19 01:30:01;;;;;;;9.30;5.47;;;21.70;99.90;;;;;;5093802;28;20208;-84
2022/05/19 01:32:30;;;;;;;8.97;6.30;;;21.60;99.90;;;;;;5093968;28;20228;-84
2022/05/19 01:34:58;;;;;;;10.03;6.73;;;21.40;99.90;;;;;;5093638;28;20204;-84
2022/05/19 01:37:26;;;;;;;10.43;7.27;;;21.20;99.90;;;;;;5093517;28;20197;-85
2022/05/19 01:39:56;;;;;;;9.37;7.20;;;21.00;99.90;;;;;;5093506;28;20211;-83
2022/05/19 01:42:34;;;;;;;15.40;8.18;;;20.80;99.90;;;;;;5092822;28;20448;-83
2022/05/19 01:45:12;;;;;;;13.97;8.13;;;20.70;99.90;;;;;;5093867;28;20202;-83
2022/05/19 01:47:44;;;;;;;13.53;8.70;;;20.60;99.90;;;;;;5093829;28;20212;-83
2022/05/19 01:50:20;;;;;;;13.23;8.37;;;20.60;99.90;;;;;;5093533;28;20201;-84
2022/05/19 01:52:54;;;;;;;13.00;8.27;;;20.50;99.90;;;;;;5093226;28;20202;-83
2022/05/19 01:55:26;;;;;;;9.70;7.97;;;20.50;99.90;;;;;;5093312;28;20201;-84
2022/05/19 01:57:59;;;;;;;10.40;7.43;;;20.60;99.90;;;;;;5093469;28;20209;-83
2022/05/19 02:00:29;;;;;;;17.90;8.57;;;20.70;99.90;;;;;;5093209;28;20248;-83
2022/05/19 02:03:03;;;;;;;23.77;9.67;;;20.90;99.90;;;;;;5090632;28;20212;-84
2022/05/19 02:05:41;;;;;;;15.40;9.73;;;20.70;99.90;;;;;;5091354;28;20423;-84
2022/05/19 02:08:14;;;;;;;8.07;7.37;;;20.50;99.90;;;;;;5092388;28;20557;-85
2022/05/19 02:10:45;;;;;;;10.43;7.60;;;20.20;99.90;;;;;;5093257;28;20201;-83
2022/05/19 02:13:12;;;;;;;18.23;9.43;;;20.10;99.90;;;;;;5093512;28;20227;-82
2022/05/19 02:15:45;;;;;;;19.93;10.97;;;20.10;99.90;;;;;;5093294;28;20215;-82
2022/05/19 02:18:12;;;;;;;24.37;11.70;;;19.80;99.90;;;;;;5093143;28;20204;-82
2022/05/19 02:20:43;;;;;;;17.37;10.93;;;19.60;99.90;;;;;;5094366;28;20235;-83
2022/05/19 02:23:12;;;;;;;16.50;11.00;;;19.50;99.90;;;;;;5097558;28;20206;-83
2022/05/19 02:25:43;;;;;;;12.47;9.43;;;19.40;99.90;;;;;;5097483;28;20211;-82
2022/05/19 02:28:14;;;;;;;20.77;12.07;;;19.20;99.90;;;;;;5096753;28;20429;-84
2022/05/19 02:30:43;;;;;;;18.30;11.93;;;19.30;99.90;;;;;;5097184;28;20237;-83
2022/05/19 02:33:13;;;;;;;18.67;10.27;;;19.10;99.90;;;;;;5097250;28;20210;-83
2022/05/19 02:35:40;;;;;;;15.00;9.43;;;18.90;99.90;;;;;;5097177;28;20204;-84
2022/05/19 02:38:07;;;;;;;15.03;10.90;;;19.00;99.90;;;;;;5097186;28;20210;-84
2022/05/19 02:40:35;;;;;;;18.87;9.73;;;19.00;99.90;;;;;;5096861;28;20269;-84
2022/05/19 02:43:04;;;;;;;20.67;11.67;;;19.00;99.90;;;;;;5096866;28;20190;-84
2022/05/19 02:45:32;;;;;;;25.07;12.53;;;19.10;99.90;;;;;;5096973;28;20204;-84
2022/05/19 02:48:00;;;;;;;16.80;11.53;;;19.10;99.90;;;;;;5095831;28;20203;-84
2022/05/19 02:50:28;;;;;;;17.57;10.83;;;19.10;99.90;;;;;;5096651;28;20705;-85
2022/05/19 02:52:55;;;;;;;12.93;9.77;;;19.00;99.90;;;;;;5096810;28;20204;-85
2022/05/19 02:55:22;;;;;;;12.47;9.80;;;19.00;99.90;;;;;;5096530;28;20211;-84
2022/05/19 02:57:50;;;;;;;14.07;8.70;;;19.00;99.90;;;;;;5096663;28;20549;-85
2022/05/19 03:00:20;;;;;;;13.10;8.70;;;18.90;99.90;;;;;;5096533;28;20228;-84
2022/05/19 03:02:47;;;;;;;10.57;8.03;;;18.90;99.90;;;;;;5096999;28;20204;-85
2022/05/19 03:05:19;;;;;;;9.73;7.30;;;18.90;99.90;;;;;;5096364;28;20201;-84
2022/05/19 03:07:46;;;;;;;10.73;7.70;;;18.80;99.90;;;;;;5096504;28;20202;-84
2022/05/19 03:10:13;;;;;;;8.50;6.70;;;18.90;99.90;;;;;;5096301;28;20609;-85
2022/05/19 03:12:40;;;;;;;8.73;6.07;;;18.90;99.90;;;;;;5096749;28;20195;-85
2022/05/19 03:15:08;;;;;;;9.45;6.05;;;18.90;99.90;;;;;;5095994;28;20900;-85
2022/05/19 03:17:36;;;;;;;6.03;5.23;;;18.80;99.90;;;;;;5096781;28;20191;-85
2022/05/19 03:20:04;;;;;;;7.97;5.77;;;18.70;99.90;;;;;;5096213;28;20237;-83
2022/05/19 03:22:33;;;;;;;13.23;5.67;;;18.70;99.90;;;;;;5096241;28;20339;-82
2022/05/19 03:25:00;;;;;;;10.93;5.47;;;18.70;99.90;;;;;;5096145;28;20204;-82
2022/05/19 03:27:27;;;;;;;7.00;5.00;;;18.70;99.90;;;;;;5095891;28;20203;-84
2022/05/19 03:29:54;;;;;;;10.10;5.70;;;18.70;99.90;;;;;;5095923;28;20686;-84
2022/05/19 03:32:21;;;;;;;11.13;5.50;;;18.70;99.90;;;;;;5094216;28;20224;-84
2022/05/19 03:34:48;;;;;;;9.57;5.77;;;18.70;99.90;;;;;;5095682;28;20568;-84
2022/05/19 03:37:15;;;;;;;8.73;5.50;;;18.70;99.90;;;;;;5095896;28;20571;-84
2022/05/19 03:39:43;;;;;;;8.20;5.83;;;18.80;99.90;;;;;;5095764;28;20285;-83
2022/05/19 03:42:10;;;;;;;7.60;5.70;;;18.70;99.90;;;;;;5095680;28;20235;-84
2022/05/19 03:44:38;;;;;;;7.17;5.57;;;18.70;99.90;;;;;;5095692;28;20214;-84
2022/05/19 03:47:06;;;;;;;7.00;5.30;;;18.60;99.90;;;;;;5095607;28;20669;-84
2022/05/19 03:49:33;;;;;;;6.17;5.03;;;18.60;99.90;;;;;;5095818;28;20273;-84
2022/05/19 03:52:00;;;;;;;5.20;4.60;;;18.60;99.90;;;;;;5095431;28;20575;-83
2022/05/19 03:54:27;;;;;;;7.07;5.27;;;18.60;99.90;;;;;;5095342;28;20266;-84
2022/05/19 03:56:55;;;;;;;9.13;5.20;;;18.60;99.90;;;;;;5095960;28;20212;-84
2022/05/19 03:59:22;;;;;;;6.63;5.50;;;18.60;99.90;;;;;;5095254;28;20212;-84
2022/05/19 04:01:49;;;;;;;8.00;5.83;;;18.50;99.90;;;;;;5095053;28;20217;-84
2022/05/19 04:04:16;;;;;;;8.73;6.00;;;18.40;99.90;;;;;;5094324;28;20190;-84
2022/05/19 04:06:42;;;;;;;9.23;5.73;;;18.40;99.90;;;;;;5095382;28;20202;-83
2022/05/19 04:09:09;;;;;;;9.53;5.43;;;18.20;99.90;;;;;;5095432;28;20197;-83
2022/05/19 04:11:36;;;;;;;7.60;5.70;;;18.40;99.90;;;;;;5095639;28;20215;-83
2022/05/19 04:14:04;;;;;;;7.67;5.50;;;18.30;99.90;;;;;;5095118;28;20213;-83
2022/05/19 04:16:31;;;;;;;6.13;5.53;;;18.30;99.90;;;;;;5095195;28;20207;-83
2022/05/19 04:18:58;;;;;;;10.23;5.17;;;18.30;99.90;;;;;;5095004;28;20197;-83
2022/05/19 04:21:24;;;;;;;8.50;5.43;;;18.40;99.90;;;;;;5094917;28;20230;-83
2022/05/19 04:23:51;;;;;;;7.40;5.27;;;18.40;99.90;;;;;;5095080;28;20207;-83
2022/05/19 04:26:18;;;;;;;6.10;5.43;;;18.50;99.90;;;;;;5093865;28;20465;-83
2022/05/19 04:28:45;;;;;;;9.23;4.97;;;18.50;99.90;;;;;;5094921;28;20212;-83
2022/05/19 04:31:13;;;;;;;9.93;5.10;;;18.50;99.90;;;;;;5094477;28;20227;-83
2022/05/19 04:33:40;;;;;;;7.47;5.27;;;18.50;99.90;;;;;;5094667;28;20635;-83
2022/05/19 04:36:07;;;;;;;7.53;4.87;;;18.50;99.90;;;;;;5095105;28;20230;-83
2022/05/19 04:38:34;;;;;;;5.73;5.00;;;18.50;99.90;;;;;;5094985;28;20194;-83
2022/05/19 04:41:03;;;;;;;8.47;5.83;;;18.60;99.90;;;;;;5094616;28;20238;-83
2022/05/19 04:43:30;;;;;;;7.60;4.53;;;18.70;99.90;;;;;;5094274;28;20193;-84
2022/05/19 04:45:57;;;;;;;5.10;4.60;;;18.50;99.90;;;;;;5094273;28;20197;-84
2022/05/19 04:48:27;;;;;;;5.20;4.70;;;18.60;99.90;;;;;;5094586;28;20194;-83
2022/05/19 04:50:55;;;;;;;5.60;5.10;;;18.60;99.90;;;;;;5094325;28;20208;-83
2022/05/19 04:53:23;;;;;;;9.13;5.30;;;18.50;99.90;;;;;;5094407;28;20212;-83
2022/05/19 04:55:50;;;;;;;6.53;5.57;;;18.50;99.90;;;;;;5092922;28;20207;-84
2022/05/19 04:58:17;;;;;;;7.50;5.30;;;18.60;99.90;;;;;;5094320;28;20208;-83
2022/05/19 05:00:44;;;;;;;7.80;5.70;;;18.70;99.90;;;;;;5091753;28;20221;-83
2022/05/19 05:03:10;;;;;;;7.03;6.33;;;18.80;99.90;;;;;;5082623;28;20210;-84
2022/05/19 05:05:39;;;;;;;11.43;6.20;;;18.80;99.90;;;;;;5073590;28;20198;-83
2022/05/19 05:08:06;;;;;;;8.60;6.00;;;18.70;99.90;;;;;;5073860;28;20208;-83
2022/05/19 05:10:32;;;;;;;8.80;6.33;;;18.70;99.90;;;;;;5073451;28;20588;-83
2022/05/19 05:13:05;;;;;;;10.15;6.53;;;18.80;99.90;;;;;;5073141;28;20440;-83
2022/05/19 05:15:32;;;;;;;6.03;5.50;;;18.80;99.90;;;;;;5073508;28;20208;-83
2022/05/19 05:17:59;;;;;;;6.60;5.90;;;18.70;99.90;;;;;;5073584;28;20187;-83
2022/05/19 05:20:26;;;;;;;8.23;5.80;;;18.90;99.90;;;;;;5073290;28;20253;-82
2022/05/19 05:22:54;;;;;;;6.50;5.90;;;18.90;99.90;;;;;;5073668;28;20196;-83
2022/05/19 05:25:21;;;;;;;9.53;6.40;;;18.90;99.90;;;;;;5073309;28;20203;-83
2022/05/19 05:27:47;;;;;;;7.00;5.80;;;18.90;99.90;;;;;;5073655;28;20207;-83
2022/05/19 05:30:15;;;;;;;6.87;6.17;;;19.10;99.90;;;;;;5073186;28;20204;-83
2022/05/19 05:32:41;;;;;;;8.33;6.50;;;19.10;99.90;;;;;;5073391;28;20200;-83
2022/05/19 05:35:10;;;;;;;9.77;6.77;;;19.20;99.90;;;;;;5073467;28;20208;-83
2022/05/19 05:37:37;;;;;;;11.23;7.23;;;19.30;99.90;;;;;;5073725;28;20200;-83
2022/05/19 05:40:07;;;;;;;15.80;7.60;;;19.20;99.90;;;;;;5073525;28;20193;-83
2022/05/19 05:42:34;;;;;;;13.90;8.13;;;19.20;99.90;;;;;;5073323;28;20218;-83
2022/05/19 05:45:01;;;;;;;8.97;7.27;;;19.30;99.90;;;;;;5073227;28;20561;-83
2022/05/19 05:47:28;;;;;;;12.17;7.80;;;19.50;99.90;;;;;;5073154;28;20665;-83
2022/05/19 05:49:55;;;;;;;8.40;7.53;;;19.60;99.90;;;;;;5073409;28;20202;-83
2022/05/19 05:52:22;;;;;;;9.50;6.80;;;19.60;99.90;;;;;;5073067;28;20206;-83
2022/05/19 05:54:49;;;;;;;8.43;6.93;;;19.70;99.90;;;;;;5072902;28;20194;-83
2022/05/19 05:57:18;;;;;;;7.23;6.57;;;19.70;99.90;;;;;;5073006;28;20208;-82
2022/05/19 05:59:45;;;;;;;10.70;6.33;;;19.80;99.90;;;;;;5072747;28;20711;-82
2022/05/19 06:02:11;;;;;;;7.60;6.33;;;20.00;99.90;;;;;;5072993;28;20233;-82
2022/05/19 06:04:38;;;;;;;7.10;6.47;;;20.10;99.90;;;;;;5073230;28;20221;-82
2022/05/19 06:07:05;;;;;;;7.17;6.57;;;20.00;99.90;;;;;;5072854;28;20220;-82
2022/05/19 06:09:32;;;;;;;9.47;5.90;;;20.10;99.90;;;;;;5072914;28;20224;-82
2022/05/19 06:11:59;;;;;;;7.33;5.73;;;20.20;99.90;;;;;;5072991;28;20217;-82
2022/05/19 06:14:27;;;;;;;8.90;6.37;;;20.20;99.90;;;;;;5072695;28;20231;-82
2022/05/19 06:16:54;;;;;;;8.10;5.83;;;20.40;99.90;;;;;;5072968;28;20227;-82
2022/05/19 06:19:21;;;;;;;8.20;5.93;;;20.50;99.90;;;;;;5072654;28;20212;-82
2022/05/19 06:21:48;;;;;;;6.07;5.57;;;20.70;99.90;;;;;;5072764;28;20148;-82
2022/05/19 06:24:15;;;;;;;7.57;5.93;;;20.70;99.90;;;;;;5072873;28;20942;-83
2022/05/19 06:26:42;;;;;;;8.37;5.87;;;20.90;99.90;;;;;;5072230;28;20212;-82
2022/05/19 06:29:09;;;;;;;6.07;5.47;;;21.00;99.90;;;;;;5072920;28;20214;-82
2022/05/19 06:31:37;;;;;;;6.10;5.10;;;21.10;99.90;;;;;;5072705;28;20226;-81
2022/05/19 06:34:04;;;;;;;9.37;5.53;;;21.20;99.90;;;;;;5072985;28;20212;-82
2022/05/19 06:36:31;;;;;;;6.50;5.63;;;21.30;99.90;;;;;;5072693;28;20229;-81
2022/05/19 06:38:58;;;;;;;7.67;5.20;;;21.30;99.90;;;;;;5072673;28;20218;-81
2022/05/19 06:44:06;;;;;;;10.23;5.10;;;21.30;99.90;;;;;;5059675;28;20206;-82
2022/05/19 06:46:33;;;;;;;6.83;5.10;;;21.40;99.90;;;;;;5072675;28;20642;-82
2022/05/19 06:49:04;;;;;;;6.53;5.13;;;21.50;99.90;;;;;;5072602;28;20220;-82
2022/05/19 06:51:31;;;;;;;7.13;5.20;;;21.70;99.90;;;;;;5072504;28;20220;-82
2022/05/19 06:53:58;;;;;;;6.10;4.70;;;21.80;99.90;;;;;;5072439;28;20200;-82
2022/05/19 06:56:25;;;;;;;8.30;4.73;;;21.90;99.90;;;;;;5071922;28;20214;-82
2022/05/19 06:58:52;;;;;;;7.97;5.23;;;22.00;99.90;;;;;;5072363;28;20239;-82
2022/05/19 07:01:19;;;;;;;6.87;5.03;;;22.10;99.90;;;;;;5072582;28;20323;-83
2022/05/19 07:03:45;;;;;;;11.47;5.33;;;22.20;99.90;;;;;;5072551;28;20216;-82
2022/05/19 07:06:13;;;;;;;10.93;5.70;;;22.20;99.90;;;;;;5072570;28;20224;-82
2022/05/19 07:08:41;;;;;;;7.57;4.93;;;22.20;99.90;;;;;;5075106;28;20221;-82
2022/05/19 07:11:24;;;;;;;8.27;5.37;;;22.20;99.90;;;;;;5076036;28;20303;-83
2022/05/19 07:13:51;;;;;;;9.53;5.47;;;22.30;99.90;;;;;;5076428;28;20638;-82
2022/05/19 07:16:18;;;;;;;7.87;5.20;;;22.30;99.90;;;;;;5075946;28;20220;-82
2022/05/19 07:18:45;;;;;;;6.37;5.23;;;22.30;99.90;;;;;;5075527;28;20221;-82
2022/05/19 07:21:14;;;;;;;8.67;5.40;;;22.20;99.90;;;;;;5075722;28;20218;-83
2022/05/19 07:23:41;;;;;;;7.40;5.10;;;22.40;99.90;;;;;;5075915;28;20220;-82
2022/05/19 07:26:08;;;;;;;6.63;4.90;;;22.20;99.90;;;;;;5075656;28;20368;-83
2022/05/19 07:28:35;;;;;;;5.27;4.73;;;22.00;99.90;;;;;;5075623;28;20216;-90
2022/05/19 07:31:02;;;;;;;6.20;4.87;;;22.10;99.90;;;;;;5076721;28;20308;-86
2022/05/19 07:33:29;;;;;;;9.67;5.20;;;22.10;99.90;;;;;;5076012;28;20550;-86
2022/05/19 07:35:57;;;;;;;5.13;4.63;;;22.30;99.90;;;;;;5076143;28;20223;-87
2022/05/19 07:38:25;;;;;;;5.77;4.93;;;22.40;99.90;;;;;;5076045;28;20209;-86
2022/05/19 07:40:54;;;;;;;5.27;4.77;;;22.70;99.90;;;;;;5075837;28;20220;-86
2022/05/19 07:43:36;;;;;;;6.80;4.67;;;22.70;99.90;;;;;;5076018;28;20227;-88
2022/05/19 07:46:04;;;;;;;9.87;4.87;;;22.80;99.90;;;;;;5076129;28;20217;-87
2022/05/19 07:48:31;;;;;;;10.97;4.67;;;23.00;99.90;;;;;;5075767;28;20213;-87
2022/05/19 07:50:58;;;;;;;5.27;4.23;;;23.20;99.90;;;;;;5076261;28;20320;-87
2022/05/19 07:53:26;;;;;;;7.93;4.93;;;23.00;99.90;;;;;;5075990;28;20611;-90
2022/05/19 07:55:53;;;;;;;5.60;4.43;;;23.00;99.90;;;;;;5075988;28;20228;-88
2022/05/19 07:58:20;;;;;;;11.37;4.87;;;23.00;99.90;;;;;;5075947;28;20214;-88
2022/05/19 08:00:47;;;;;;;5.00;4.33;;;23.10;99.90;;;;;;5075301;28;20214;-84
2022/05/19 08:03:14;;;;;;;8.73;4.30;;;23.00;99.90;;;;;;5074920;28;20637;-82
2022/05/19 08:05:41;;;;;;;5.43;4.60;;;23.10;99.90;;;;;;5075327;28;20661;-81
2022/05/19 08:08:08;;;;;;;5.10;4.17;;;23.20;99.90;;;;;;5074780;28;20209;-82
2022/05/19 08:10:36;;;;;;;7.00;4.27;;;23.40;99.90;;;;;;5074918;28;20218;-81
2022/05/19 08:15:49;;;;;;;7.60;4.57;;;23.50;99.90;;;;;;5074738;28;20267;-82
2022/05/19 08:18:19;;;;;;;6.33;4.43;;;23.40;99.90;;;;;;5074675;28;20245;-82
2022/05/19 08:20:47;;;;;;;6.53;4.85;;;23.60;99.90;;;;;;5073913;28;20507;-82
2022/05/19 08:23:17;;;;;;;8.03;4.53;;;23.70;99.90;;;;;;5074134;28;20720;-83
2022/05/19 08:25:46;;;;;;;7.77;4.63;;;23.60;99.90;;;;;;5074369;28;20734;-82
2022/05/19 08:28:14;;;;;;;7.93;4.53;;;23.60;99.90;;;;;;5074362;28;20221;-82
2022/05/19 08:30:42;;;;;;;4.93;4.47;;;23.70;99.90;;;;;;5074149;28;20605;-82
2022/05/19 08:33:09;;;;;;;5.80;4.33;;;23.80;99.90;;;;;;5074654;28;20213;-82
2022/05/19 08:35:36;;;;;;;8.77;4.77;;;24.00;99.90;;;;;;5074151;28;20217;-84
2022/05/19 08:38:02;;;;;;;5.70;4.10;;;24.10;99.90;;;;;;5073981;28;20214;-82
2022/05/19 08:40:30;;;;;;;13.13;4.90;;;24.20;99.90;;;;;;5074244;28;20221;-83
2022/05/19 08:43:00;;;;;;;5.03;4.20;;;24.40;99.90;;;;;;5074241;28;20225;-82
2022/05/19 08:45:30;;;;;;;8.40;4.57;;;24.50;99.90;;;;;;5074027;28;20213;-82
2022/05/19 08:48:03;;;;;;;6.07;4.20;;;24.80;99.90;;;;;;5073954;28;20653;-82
2022/05/19 08:50:38;;;;;;;4.53;3.93;;;24.80;99.90;;;;;;5073871;28;20264;-82
2022/05/19 08:53:06;;;;;;;4.90;3.80;;;24.90;99.90;;;;;;5073790;28;20254;-83
2022/05/19 08:55:33;;;;;;;7.33;4.07;;;25.10;99.90;;;;;;5073817;28;20214;-82
2022/05/19 08:58:11;;;;;;;7.93;4.57;;;25.30;99.90;;;;;;5073873;28;20255;-83
2022/05/19 09:00:41;;;;;;;9.57;4.23;;;25.40;99.90;;;;;;5073548;28;20299;-82
2022/05/19 09:03:20;;;;;;;5.30;4.13;;;25.50;99.90;;;;;;5073726;28;20236;-84
2022/05/19 09:06:27;;;;;;;5.50;4.23;;;25.60;99.90;;;;;;5073594;28;20588;-83
2022/05/19 09:09:08;;;;;;;6.53;4.82;;;25.70;99.90;;;;;;5072525;28;20428;-83
2022/05/19 09:11:45;;;;;;;6.53;4.13;;;25.90;99.90;;;;;;5073667;28;20216;-85
2022/05/19 09:14:21;;;;;;;5.17;4.67;;;25.80;99.90;;;;;;5073918;28;20210;-83
2022/05/19 09:16:49;;;;;;;8.00;4.73;;;26.00;99.90;;;;;;5073758;28;20582;-84
2022/05/19 09:19:20;;;;;;;5.17;4.77;;;26.10;99.90;;;;;;5073679;28;20205;-84
2022/05/19 09:22:01;;;;;;;5.73;4.63;;;26.10;99.90;;;;;;5072814;28;20295;-85
2022/05/19 09:24:28;;;;;;;5.00;4.50;;;26.20;99.90;;;;;;5074705;28;20221;-89
2022/05/19 09:26:56;;;;;;;5.27;4.57;;;26.40;99.90;;;;;;5074920;28;20259;-89
2022/05/19 09:29:31;;;;;;;5.60;4.97;;;26.40;99.90;;;;;;5075019;28;20213;-88
2022/05/19 09:32:06;;;;;;;8.57;5.60;;;26.60;99.90;;;;;;5073077;28;20435;-90
2022/05/19 09:34:35;;;;;;;6.47;5.13;;;26.90;99.90;;;;;;5074916;28;20213;-90
2022/05/19 09:37:09;;;;;;;6.38;5.05;;;27.10;99.90;;;;;;5074364;28;20221;-89
2022/05/19 09:39:46;;;;;;;7.82;5.38;;;27.40;99.90;;;;;;5074728;28;20239;-85
2022/05/19 09:42:19;;;;;;;6.18;5.40;;;27.50;99.90;;;;;;5074406;28;20225;-88
2022/05/19 09:44:51;;;;;;;6.75;5.35;;;27.40;99.90;;;;;;5074291;28;20224;-88
2022/05/19 09:47:28;;;;;;;11.70;5.15;;;27.30;99.90;;;;;;5074942;28;20194;-89
2022/05/19 09:50:01;;;;;;;10.98;5.65;;;27.60;99.90;;;;;;5074033;28;20221;-88
2022/05/19 09:52:32;;;;;;;6.60;5.78;;;27.60;99.90;;;;;;5074468;28;20220;-88
2022/05/19 09:55:05;;;;;;;8.27;5.80;;;27.60;99.90;;;;;;5073670;28;20448;-89
2022/05/19 09:57:43;;;;;;;6.53;5.68;;;27.50;99.90;;;;;;5074317;28;20468;-89
2022/05/19 10:00:20;;;;;;;10.57;6.20;;;26.80;99.90;;;;;;5073922;28;20263;-89
2022/05/19 10:02:51;;;;;;;6.00;5.37;;;26.20;99.90;;;;;;5073730;28;20225;-89
2022/05/19 10:05:32;;;;;;;13.00;6.43;;;25.80;99.90;;;;;;5074183;28;20274;-89
2022/05/19 10:08:04;;;;;;;9.50;6.10;;;25.40;99.90;;;;;;5074197;28;20229;-89
2022/05/19 10:10:35;;;;;;;15.80;6.20;;;24.80;99.90;;;;;;5074079;28;20217;-87
2022/05/19 10:13:07;;;;;;;10.73;4.63;;;23.30;99.90;;;;;;5073510;28;20215;-87
2022/05/19 10:15:44;;;;;;;11.07;2.67;;;20.00;99.90;;;;;;5073814;28;20612;-90
2022/05/19 10:18:20;;;;;;;4.18;3.22;;;18.10;99.90;;;;;;5073350;28;20438;-86
2022/05/19 10:20:59;;;;;;;7.03;5.03;;;17.60;99.90;;;;;;5073900;28;20216;-85
2022/05/19 10:23:48;;;;;;;7.17;5.57;;;17.60;99.90;;;;;;5085436;28;20683;-87
2022/05/19 10:26:39;;;;;;;10.00;6.57;;;17.80;99.90;;;;;;5087868;28;20222;-87
2022/05/19 10:32:43;;;;;;;7.87;6.80;;;18.00;99.90;;;;;;5093706;28;20242;-86
2022/05/19 10:35:16;;;;;;;10.93;5.80;;;18.00;99.90;;;;;;5073269;28;20691;-84
2022/05/19 10:37:57;;;;;;;9.33;6.43;;;17.90;99.90;;;;;;5073627;28;20220;-86
